sensor_id;sensor_type;location;lat;lon;timestamp;pressure;altitude;pressure_sealevel;temperature;humidity
18784;BME280;9520;50.954;6.968;2023-01-04T00:00:14;101763.84;;;15.88;42.81
18784;BME280;9520;50.954;6.968;2023-01-04T00:00:36;101764.66;;;15.92;42.97
18784;BME280;9520;50.954;6.968;2023-01-04T00:00:58;101754.03;;;15.92;42.82
18784;BME280;9520;50.954;6.968;2023-01-04T00:01:21;101762.78;;;15.97;42.83
18784;BME280;9520;50.954;6.968;2023-01-04T00:01:44;101746.03;;;15.92;42.65
18784;BME280;9520;50.954;6.968;2023-01-04T00:02:06;101756.69;;;15.92;42.72
18784;BME280;9520;50.954;6.968;2023-01-04T00:02:28;101753.94;;;15.96;42.85
18784;BME280;9520;50.954;6.968;2023-01-04T00:02:51;101753.84;;;15.99;43.02
18784;BME280;9520;50.954;6.968;2023-01-04T00:03:12;101758.28;;;15.99;42.95
18784;BME280;9520;50.954;6.968;2023-01-04T00:03:34;101748.53;;;15.99;42.81
18784;BME280;9520;50.954;6.968;2023-01-04T00:03:56;101753.34;;;15.81;42.96
18784;BME280;9520;50.954;6.968;2023-01-04T00:04:18;101756.78;;;15.87;42.99
18784;BME280;9520;50.954;6.968;2023-01-04T00:04:41;101749.63;;;15.89;42.90
18784;BME280;9520;50.954;6.968;2023-01-04T00:05:05;101746.97;;;15.89;42.91
18784;BME280;9520;50.954;6.968;2023-01-04T00:05:27;101751.25;;;15.98;42.79
18784;BME280;9520;50.954;6.968;2023-01-04T00:05:48;101739.63;;;16.02;42.84
18784;BME280;9520;50.954;6.968;2023-01-04T00:06:13;101745.84;;;16.01;42.81
18784;BME280;9520;50.954;6.968;2023-01-04T00:06:35;101731.75;;;15.96;42.81
18784;BME280;9520;50.954;6.968;2023-01-04T00:06:57;101746.72;;;16.03;42.68
18784;BME280;9520;50.954;6.968;2023-01-04T00:07:19;101749.38;;;16.03;42.98
18784;BME280;9520;50.954;6.968;2023-01-04T00:07:41;101745.72;;;16.07;42.70
18784;BME280;9520;50.954;6.968;2023-01-04T00:08:03;101733.31;;;16.06;42.72
18784;BME280;9520;50.954;6.968;2023-01-04T00:08:25;101746.63;;;16.08;42.73
18784;BME280;9520;50.954;6.968;2023-01-04T00:08:48;101749.59;;;15.92;42.90
18784;BME280;9520;50.954;6.968;2023-01-04T00:09:09;101743.28;;;15.96;42.80
18784;BME280;9520;50.954;6.968;2023-01-04T00:09:31;101746.94;;;15.91;42.81
18784;BME280;9520;50.954;6.968;2023-01-04T00:09:53;101724.75;;;15.92;42.96
18784;BME280;9520;50.954;6.968;2023-01-04T00:10:14;101730.91;;;15.94;43.04
18784;BME280;9520;50.954;6.968;2023-01-04T00:10:37;101733.53;;;15.97;43.01
18784;BME280;9520;50.954;6.968;2023-01-04T00:11:00;101729.06;;;15.97;42.87
18784;BME280;9520;50.954;6.968;2023-01-04T00:11:23;101723.75;;;15.97;43.08
18784;BME280;9520;50.954;6.968;2023-01-04T00:11:45;101732.63;;;15.98;43.21
18784;BME280;9520;50.954;6.968;2023-01-04T00:12:07;101730.75;;;16.02;43.01
18784;BME280;9520;50.954;6.968;2023-01-04T00:12:29;101728.03;;;16.05;42.70
18784;BME280;9520;50.954;6.968;2023-01-04T00:12:50;101735.91;;;16.09;42.72
18784;BME280;9520;50.954;6.968;2023-01-04T00:13:13;101721.88;;;16.03;42.91
18784;BME280;9520;50.954;6.968;2023-01-04T00:13:35;101720.88;;;16.08;42.80
18784;BME280;9520;50.954;6.968;2023-01-04T00:13:57;101708.69;;;15.96;42.79
18784;BME280;9520;50.954;6.968;2023-01-04T00:14:19;101725.22;;;16.12;42.87
18784;BME280;9520;50.954;6.968;2023-01-04T00:14:42;101728.69;;;16.16;42.63
18784;BME280;9520;50.954;6.968;2023-01-04T00:15:04;101730.38;;;16.18;42.62
18784;BME280;9520;50.954;6.968;2023-01-04T00:15:26;101717.94;;;16.20;42.55
18784;BME280;9520;50.954;6.968;2023-01-04T00:15:48;101710.81;;;16.22;42.55
18784;BME280;9520;50.954;6.968;2023-01-04T00:16:12;101734.78;;;16.21;42.58
18784;BME280;9520;50.954;6.968;2023-01-04T00:16:35;101724.06;;;16.24;42.61
18784;BME280;9520;50.954;6.968;2023-01-04T00:16:57;101712.53;;;16.23;42.44
18784;BME280;9520;50.954;6.968;2023-01-04T00:17:19;101726.69;;;16.25;42.44
18784;BME280;9520;50.954;6.968;2023-01-04T00:17:41;101716.94;;;16.26;42.59
18784;BME280;9520;50.954;6.968;2023-01-04T00:18:03;101716.13;;;16.22;42.70
18784;BME280;9520;50.954;6.968;2023-01-04T00:18:24;101717.81;;;16.26;42.55
18784;BME280;9520;50.954;6.968;2023-01-04T00:18:47;101717.81;;;16.26;42.56
18784;BME280;9520;50.954;6.968;2023-01-04T00:19:10;101721.28;;;16.30;42.76
18784;BME280;9520;50.954;6.968;2023-01-04T00:19:32;101715.13;;;16.28;42.52
18784;BME280;9520;50.954;6.968;2023-01-04T00:19:55;101715.16;;;16.25;42.63
18784;BME280;9520;50.954;6.968;2023-01-04T00:20:18;101719.56;;;16.27;42.84
18784;BME280;9520;50.954;6.968;2023-01-04T00:20:39;101723.94;;;16.30;42.55
18784;BME280;9520;50.954;6.968;2023-01-04T00:21:12;101721.44;;;16.22;42.67
18784;BME280;9520;50.954;6.968;2023-01-04T00:21:35;101709.97;;;16.19;42.72
18784;BME280;9520;50.954;6.968;2023-01-04T00:21:57;101717.03;;;16.21;42.46
18784;BME280;9520;50.954;6.968;2023-01-04T00:22:20;101720.59;;;16.20;42.81
18784;BME280;9520;50.954;6.968;2023-01-04T00:22:41;101715.16;;;16.25;43.07
18784;BME280;9520;50.954;6.968;2023-01-04T00:23:04;101712.63;;;16.20;42.92
18784;BME280;9520;50.954;6.968;2023-01-04T00:23:27;101721.66;;;16.13;42.94
18784;BME280;9520;50.954;6.968;2023-01-04T00:23:50;101713.94;;;15.99;42.97
18784;BME280;9520;50.954;6.968;2023-01-04T00:24:12;101713.72;;;16.10;42.70
18784;BME280;9520;50.954;6.968;2023-01-04T00:24:36;101723.25;;;16.20;42.75
18784;BME280;9520;50.954;6.968;2023-01-04T00:24:59;101713.38;;;16.25;42.63
18784;BME280;9520;50.954;6.968;2023-01-04T00:25:21;101721.34;;;16.27;42.79
18784;BME280;9520;50.954;6.968;2023-01-04T00:25:43;101719.72;;;16.20;42.53
18784;BME280;9520;50.954;6.968;2023-01-04T00:26:06;101692.66;;;15.99;42.74
18784;BME280;9520;50.954;6.968;2023-01-04T00:26:30;101715.16;;;16.25;42.61
18784;BME280;9520;50.954;6.968;2023-01-04T00:26:52;101667.91;;;15.96;43.00
18784;BME280;9520;50.954;6.968;2023-01-04T00:27:15;101709.06;;;16.20;43.33
18784;BME280;9520;50.954;6.968;2023-01-04T00:27:38;101710.69;;;16.27;42.80
18784;BME280;9520;50.954;6.968;2023-01-04T00:28:00;101720.47;;;16.26;42.97
18784;BME280;9520;50.954;6.968;2023-01-04T00:28:21;101708.28;;;16.16;43.08
18784;BME280;9520;50.954;6.968;2023-01-04T00:28:43;101713.56;;;16.18;42.92
18784;BME280;9520;50.954;6.968;2023-01-04T00:29:14;101718.13;;;16.11;42.84
18784;BME280;9520;50.954;6.968;2023-01-04T00:29:36;101729.75;;;16.07;43.18
18784;BME280;9520;50.954;6.968;2023-01-04T00:29:58;101721.91;;;16.01;43.15
18784;BME280;9520;50.954;6.968;2023-01-04T00:30:20;101721.03;;;16.01;43.27
18784;BME280;9520;50.954;6.968;2023-01-04T00:30:42;101713.84;;;16.04;43.24
18784;BME280;9520;50.954;6.968;2023-01-04T00:31:05;101710.56;;;15.93;43.20
18784;BME280;9520;50.954;6.968;2023-01-04T00:31:28;101715.91;;;15.90;43.64
18784;BME280;9520;50.954;6.968;2023-01-04T00:31:51;101721.13;;;15.96;43.50
18784;BME280;9520;50.954;6.968;2023-01-04T00:32:13;101707.88;;;15.93;43.54
18784;BME280;9520;50.954;6.968;2023-01-04T00:32:35;101721.13;;;15.94;43.38
18784;BME280;9520;50.954;6.968;2023-01-04T00:32:58;101712.22;;;15.97;43.35
18784;BME280;9520;50.954;6.968;2023-01-04T00:33:19;101700.94;;;15.86;43.21
18784;BME280;9520;50.954;6.968;2023-01-04T00:33:41;101699.84;;;15.96;43.45
18784;BME280;9520;50.954;6.968;2023-01-04T00:34:04;101712.22;;;15.97;43.52
18784;BME280;9520;50.954;6.968;2023-01-04T00:34:27;101702.56;;;15.93;43.75
18784;BME280;9520;50.954;6.968;2023-01-04T00:34:49;101706.91;;;15.97;43.45
18784;BME280;9520;50.954;6.968;2023-01-04T00:35:11;101700.69;;;15.98;43.61
18784;BME280;9520;50.954;6.968;2023-01-04T00:35:54;101704.97;;;16.04;43.50
18784;BME280;9520;50.954;6.968;2023-01-04T00:36:17;101714.09;;;15.92;43.36
18784;BME280;9520;50.954;6.968;2023-01-04T00:36:39;101695.47;;;15.92;43.50
18784;BME280;9520;50.954;6.968;2023-01-04T00:37:00;101712.34;;;15.91;43.78
18784;BME280;9520;50.954;6.968;2023-01-04T00:37:23;101698.94;;;15.97;43.59
18784;BME280;9520;50.954;6.968;2023-01-04T00:37:45;101699.75;;;15.99;43.73
18784;BME280;9520;50.954;6.968;2023-01-04T00:38:12;101694.44;;;15.99;43.49
18784;BME280;9520;50.954;6.968;2023-01-04T00:38:34;101692.97;;;15.84;43.64
18784;BME280;9520;50.954;6.968;2023-01-04T00:38:57;101697.16;;;15.96;43.69
18784;BME280;9520;50.954;6.968;2023-01-04T00:39:30;101695.38;;;15.98;43.67
18784;BME280;9520;50.954;6.968;2023-01-04T00:39:52;101676.06;;;15.88;43.77
18784;BME280;9520;50.954;6.968;2023-01-04T00:40:14;101683.78;;;15.99;43.68
18784;BME280;9520;50.954;6.968;2023-01-04T00:40:36;101673.34;;;15.90;43.45
18784;BME280;9520;50.954;6.968;2023-01-04T00:40:58;101676.75;;;15.96;43.64
18784;BME280;9520;50.954;6.968;2023-01-04T00:41:20;101685.53;;;16.00;43.71
18784;BME280;9520;50.954;6.968;2023-01-04T00:42:02;101683.75;;;16.02;43.56
18784;BME280;9520;50.954;6.968;2023-01-04T00:42:26;101695.41;;;15.95;43.50
18784;BME280;9520;50.954;6.968;2023-01-04T00:42:48;101698.28;;;15.84;43.76
18784;BME280;9520;50.954;6.968;2023-01-04T00:43:09;101675.28;;;15.82;43.78
18784;BME280;9520;50.954;6.968;2023-01-04T00:43:31;101692.91;;;15.87;43.65
18784;BME280;9520;50.954;6.968;2023-01-04T00:43:54;101695.03;;;15.70;44.15
18784;BME280;9520;50.954;6.968;2023-01-04T00:44:16;101697.66;;;15.73;44.29
18784;BME280;9520;50.954;6.968;2023-01-04T00:44:38;101685.19;;;15.75;44.06
18784;BME280;9520;50.954;6.968;2023-01-04T00:45:01;101696.63;;;15.79;43.92
18784;BME280;9520;50.954;6.968;2023-01-04T00:45:23;101684.94;;;15.87;43.85
18784;BME280;9520;50.954;6.968;2023-01-04T00:45:44;101689.25;;;15.93;43.85
18784;BME280;9520;50.954;6.968;2023-01-04T00:46:06;101697.09;;;15.99;43.62
18784;BME280;9520;50.954;6.968;2023-01-04T00:46:32;101683.75;;;16.02;43.56
18784;BME280;9520;50.954;6.968;2023-01-04T00:46:55;101687.31;;;16.01;43.59
18784;BME280;9520;50.954;6.968;2023-01-04T00:47:17;101679.13;;;16.09;43.59
18784;BME280;9520;50.954;6.968;2023-01-04T00:47:39;101688.78;;;16.14;43.29
18784;BME280;9520;50.954;6.968;2023-01-04T00:48:02;101682.69;;;16.09;43.28
18784;BME280;9520;50.954;6.968;2023-01-04T00:48:24;101676.53;;;16.07;43.29
18784;BME280;9520;50.954;6.968;2023-01-04T00:48:46;101666.00;;;16.01;43.40
18784;BME280;9520;50.954;6.968;2023-01-04T00:49:10;101680.19;;;16.02;43.29
18784;BME280;9520;50.954;6.968;2023-01-04T00:49:33;101634.53;;;15.80;43.43
18784;BME280;9520;50.954;6.968;2023-01-04T00:49:55;101671.09;;;16.12;43.19
18784;BME280;9520;50.954;6.968;2023-01-04T00:50:16;101671.91;;;16.15;43.14
18784;BME280;9520;50.954;6.968;2023-01-04T00:50:38;101681.78;;;16.10;43.35
18784;BME280;9520;50.954;6.968;2023-01-04T00:51:02;101679.97;;;16.12;43.25
18784;BME280;9520;50.954;6.968;2023-01-04T00:51:24;101680.03;;;16.09;43.29
18784;BME280;9520;50.954;6.968;2023-01-04T00:51:46;101668.56;;;16.07;43.20
18784;BME280;9520;50.954;6.968;2023-01-04T00:52:08;101664.00;;;16.12;43.25
18784;BME280;9520;50.954;6.968;2023-01-04T00:52:31;101672.78;;;16.16;43.35
18784;BME280;9520;50.954;6.968;2023-01-04T00:52:52;101673.53;;;16.22;43.28
18784;BME280;9520;50.954;6.968;2023-01-04T00:53:15;101670.97;;;16.18;43.27
18784;BME280;9520;50.954;6.968;2023-01-04T00:53:37;101665.56;;;16.21;43.05
18784;BME280;9520;50.954;6.968;2023-01-04T00:54:00;101666.59;;;16.15;43.24
18784;BME280;9520;50.954;6.968;2023-01-04T00:54:22;101662.13;;;16.17;43.32
18784;BME280;9520;50.954;6.968;2023-01-04T00:54:44;101662.91;;;16.21;43.07
18784;BME280;9520;50.954;6.968;2023-01-04T00:55:07;101662.34;;;16.07;43.12
18784;BME280;9520;50.954;6.968;2023-01-04T00:55:30;101651.81;;;16.02;43.73
18784;BME280;9520;50.954;6.968;2023-01-04T00:55:51;101662.78;;;15.87;43.57
18784;BME280;9520;50.954;6.968;2023-01-04T00:56:13;101650.28;;;15.90;43.53
18784;BME280;9520;50.954;6.968;2023-01-04T00:56:35;101659.91;;;15.96;43.60
18784;BME280;9520;50.954;6.968;2023-01-04T00:56:57;101655.28;;;16.04;43.60
18784;BME280;9520;50.954;6.968;2023-01-04T00:57:19;101653.38;;;16.11;43.60
18784;BME280;9520;50.954;6.968;2023-01-04T00:57:41;101658.50;;;16.18;43.27
18784;BME280;9520;50.954;6.968;2023-01-04T00:58:03;101653.97;;;16.23;43.16
18784;BME280;9520;50.954;6.968;2023-01-04T00:58:25;101651.22;;;16.28;43.27
18784;BME280;9520;50.954;6.968;2023-01-04T00:58:47;101646.81;;;16.27;43.28
18784;BME280;9520;50.954;6.968;2023-01-04T00:59:11;101654.72;;;16.28;43.06
18784;BME280;9520;50.954;6.968;2023-01-04T00:59:33;101655.16;;;16.10;43.22
18784;BME280;9520;50.954;6.968;2023-01-04T00:59:56;101657.81;;;16.12;43.50
18784;BME280;9520;50.954;6.968;2023-01-04T01:00:18;101648.91;;;16.13;43.28
18784;BME280;9520;50.954;6.968;2023-01-04T01:00:40;101655.81;;;16.20;43.33
18784;BME280;9520;50.954;6.968;2023-01-04T01:01:04;101644.69;;;16.03;43.43
18784;BME280;9520;50.954;6.968;2023-01-04T01:01:26;101656.72;;;16.19;43.21
18784;BME280;9520;50.954;6.968;2023-01-04T01:01:50;101652.53;;;16.09;43.28
18784;BME280;9520;50.954;6.968;2023-01-04T01:02:12;101655.13;;;16.12;43.23
18784;BME280;9520;50.954;6.968;2023-01-04T01:02:34;101655.94;;;16.15;43.49
18784;BME280;9520;50.954;6.968;2023-01-04T01:02:57;101643.59;;;16.13;43.43
18784;BME280;9520;50.954;6.968;2023-01-04T01:03:19;101654.78;;;16.27;43.26
18784;BME280;9520;50.954;6.968;2023-01-04T01:03:41;101650.34;;;16.27;43.02
18784;BME280;9520;50.954;6.968;2023-01-04T01:04:05;101654.72;;;16.30;43.16
18784;BME280;9520;50.954;6.968;2023-01-04T01:04:27;101649.41;;;16.28;43.30
18784;BME280;9520;50.954;6.968;2023-01-04T01:04:49;101650.16;;;16.35;43.03
18784;BME280;9520;50.954;6.968;2023-01-04T01:05:11;101651.94;;;16.34;43.21
18784;BME280;9520;50.954;6.968;2023-01-04T01:05:33;101652.72;;;16.39;42.91
18784;BME280;9520;50.954;6.968;2023-01-04T01:05:59;101650.84;;;16.43;42.69
18784;BME280;9520;50.954;6.968;2023-01-04T01:06:23;101627.06;;;16.35;42.95
18784;BME280;9520;50.954;6.968;2023-01-04T01:06:47;101649.13;;;16.42;42.73
18784;BME280;9520;50.954;6.968;2023-01-04T01:07:09;101649.13;;;16.40;42.82
18784;BME280;9520;50.954;6.968;2023-01-04T01:07:30;101639.34;;;16.42;43.10
18784;BME280;9520;50.954;6.968;2023-01-04T01:07:52;101644.59;;;16.46;42.91
18784;BME280;9520;50.954;6.968;2023-01-04T01:08:15;101642.97;;;16.38;43.07
18784;BME280;9520;50.954;6.968;2023-01-04T01:08:46;101643.31;;;16.23;43.16
18784;BME280;9520;50.954;6.968;2023-01-04T01:09:08;101638.94;;;16.22;43.37
18784;BME280;9520;50.954;6.968;2023-01-04T01:09:30;101648.50;;;16.29;43.03
18784;BME280;9520;50.954;6.968;2023-01-04T01:09:52;101643.03;;;16.35;43.03
18784;BME280;9520;50.954;6.968;2023-01-04T01:10:14;101640.28;;;16.40;43.08
18784;BME280;9520;50.954;6.968;2023-01-04T01:10:36;101639.28;;;16.44;42.84
18784;BME280;9520;50.954;6.968;2023-01-04T01:11:02;101643.91;;;16.37;43.27
18784;BME280;9520;50.954;6.968;2023-01-04T01:11:25;101637.72;;;16.35;43.64
18784;BME280;9520;50.954;6.968;2023-01-04T01:11:47;101638.56;;;16.37;43.48
18784;BME280;9520;50.954;6.968;2023-01-04T01:12:09;101644.84;;;16.33;43.83
18784;BME280;9520;50.954;6.968;2023-01-04T01:12:31;101635.13;;;16.32;43.87
18784;BME280;9520;50.954;6.968;2023-01-04T01:12:53;101638.56;;;16.37;43.42
18784;BME280;9520;50.954;6.968;2023-01-04T01:13:15;101642.16;;;16.35;43.61
18784;BME280;9520;50.954;6.968;2023-01-04T01:13:37;101620.06;;;16.31;43.71
18784;BME280;9520;50.954;6.968;2023-01-04T01:13:59;101639.41;;;16.39;43.78
18784;BME280;9520;50.954;6.968;2023-01-04T01:14:23;101636.69;;;16.42;43.75
18784;BME280;9520;50.954;6.968;2023-01-04T01:14:45;101640.19;;;16.43;43.91
18784;BME280;9520;50.954;6.968;2023-01-04T01:15:08;101638.34;;;16.47;44.11
18784;BME280;9520;50.954;6.968;2023-01-04T01:15:33;101646.41;;;16.43;43.70
18784;BME280;9520;50.954;6.968;2023-01-04T01:15:55;101632.16;;;16.45;44.16
18784;BME280;9520;50.954;6.968;2023-01-04T01:16:19;101636.56;;;16.47;44.17
18784;BME280;9520;50.954;6.968;2023-01-04T01:17:01;101607.78;;;16.26;43.67
18784;BME280;9520;50.954;6.968;2023-01-04T01:17:24;101625.16;;;16.42;43.97
18784;BME280;9520;50.954;6.968;2023-01-04T01:17:46;101632.97;;;16.48;43.80
18784;BME280;9520;50.954;6.968;2023-01-04T01:18:07;101622.31;;;16.48;43.77
18784;BME280;9520;50.954;6.968;2023-01-04T01:18:29;101635.56;;;16.51;43.86
18784;BME280;9520;50.954;6.968;2023-01-04T01:18:52;101624.94;;;16.50;44.06
18784;BME280;9520;50.954;6.968;2023-01-04T01:19:14;101627.69;;;16.47;44.12
18784;BME280;9520;50.954;6.968;2023-01-04T01:19:36;101631.25;;;16.47;44.12
18784;BME280;9520;50.954;6.968;2023-01-04T01:19:57;101624.16;;;16.46;44.16
18784;BME280;9520;50.954;6.968;2023-01-04T01:20:19;101618.03;;;16.42;43.92
18784;BME280;9520;50.954;6.968;2023-01-04T01:20:43;101625.09;;;16.43;44.14
18784;BME280;9520;50.954;6.968;2023-01-04T01:21:06;101627.63;;;16.48;44.28
18784;BME280;9520;50.954;6.968;2023-01-04T01:21:29;101624.97;;;16.48;44.41
18784;BME280;9520;50.954;6.968;2023-01-04T01:21:52;101621.47;;;16.48;44.38
18784;BME280;9520;50.954;6.968;2023-01-04T01:22:17;101621.50;;;16.46;44.54
18784;BME280;9520;50.954;6.968;2023-01-04T01:22:38;101625.16;;;16.40;44.24
18784;BME280;9520;50.954;6.968;2023-01-04T01:23:00;101630.50;;;16.40;44.62
18784;BME280;9520;50.954;6.968;2023-01-04T01:23:22;101619.31;;;16.26;44.59
18784;BME280;9520;50.954;6.968;2023-01-04T01:23:44;101616.50;;;16.32;44.34
18784;BME280;9520;50.954;6.968;2023-01-04T01:24:09;101620.34;;;16.19;44.53
18784;BME280;9520;50.954;6.968;2023-01-04T01:24:35;101628.19;;;16.25;44.53
18784;BME280;9520;50.954;6.968;2023-01-04T01:24:56;101627.19;;;16.31;44.41
18784;BME280;9520;50.954;6.968;2023-01-04T01:25:18;101615.56;;;16.33;44.75
18784;BME280;9520;50.954;6.968;2023-01-04T01:25:41;101629.72;;;16.35;44.88
18784;BME280;9520;50.954;6.968;2023-01-04T01:26:04;101622.63;;;16.36;44.73
18784;BME280;9520;50.954;6.968;2023-01-04T01:26:26;101623.50;;;16.36;44.80
18784;BME280;9520;50.954;6.968;2023-01-04T01:26:48;101619.22;;;16.29;44.83
18784;BME280;9520;50.954;6.968;2023-01-04T01:27:11;101616.50;;;16.32;44.80
18784;BME280;9520;50.954;6.968;2023-01-04T01:27:33;101620.94;;;16.32;44.47
18784;BME280;9520;50.954;6.968;2023-01-04T01:27:55;101622.72;;;16.33;44.82
18784;BME280;9520;50.954;6.968;2023-01-04T01:28:16;101621.84;;;16.32;44.92
18784;BME280;9520;50.954;6.968;2023-01-04T01:28:39;101630.09;;;16.19;44.91
18784;BME280;9520;50.954;6.968;2023-01-04T01:29:02;101615.06;;;16.18;45.18
18784;BME280;9520;50.954;6.968;2023-01-04T01:29:24;101623.00;;;16.19;44.89
18784;BME280;9520;50.954;6.968;2023-01-04T01:29:46;101615.88;;;16.21;45.19
18784;BME280;9520;50.954;6.968;2023-01-04T01:30:10;101621.19;;;16.21;45.01
18784;BME280;9520;50.954;6.968;2023-01-04T01:30:31;101617.56;;;16.24;45.26
18784;BME280;9520;50.954;6.968;2023-01-04T01:30:53;101609.56;;;16.25;45.42
18784;BME280;9520;50.954;6.968;2023-01-04T01:31:17;101617.38;;;16.33;45.47
18784;BME280;9520;50.954;6.968;2023-01-04T01:31:42;101593.59;;;16.25;45.28
18784;BME280;9520;50.954;6.968;2023-01-04T01:32:04;101613.00;;;16.30;45.46
18784;BME280;9520;50.954;6.968;2023-01-04T01:32:26;101611.94;;;16.37;45.15
18784;BME280;9520;50.954;6.968;2023-01-04T01:32:48;101601.13;;;16.43;45.34
18784;BME280;9520;50.954;6.968;2023-01-04T01:33:10;101612.75;;;16.39;45.31
18784;BME280;9520;50.954;6.968;2023-01-04T01:33:34;101604.88;;;16.36;45.14
18784;BME280;9520;50.954;6.968;2023-01-04T01:33:56;101609.31;;;16.36;45.33
18784;BME280;9520;50.954;6.968;2023-01-04T01:34:19;101609.16;;;16.42;45.05
18784;BME280;9520;50.954;6.968;2023-01-04T01:34:41;101603.97;;;16.37;45.34
18784;BME280;9520;50.954;6.968;2023-01-04T01:35:03;101607.44;;;16.39;45.27
18784;BME280;9520;50.954;6.968;2023-01-04T01:35:25;101605.63;;;16.41;45.53
18784;BME280;9520;50.954;6.968;2023-01-04T01:35:48;101605.53;;;16.45;45.35
18784;BME280;9520;50.954;6.968;2023-01-04T01:36:12;101606.44;;;16.43;45.61
18784;BME280;9520;50.954;6.968;2023-01-04T01:36:35;101603.72;;;16.47;45.43
18784;BME280;9520;50.954;6.968;2023-01-04T01:36:57;101611.66;;;16.48;45.54
18784;BME280;9520;50.954;6.968;2023-01-04T01:37:20;101603.78;;;16.43;45.47
18784;BME280;9520;50.954;6.968;2023-01-04T01:37:41;101606.50;;;16.42;45.41
18784;BME280;9520;50.954;6.968;2023-01-04T01:38:03;101609.41;;;16.31;45.63
18784;BME280;9520;50.954;6.968;2023-01-04T01:38:25;101604.25;;;16.25;45.65
18784;BME280;9520;50.954;6.968;2023-01-04T01:38:47;101605.13;;;16.26;45.67
18784;BME280;9520;50.954;6.968;2023-01-04T01:39:10;101600.59;;;16.29;46.08
18784;BME280;9520;50.954;6.968;2023-01-04T01:39:32;101602.44;;;16.27;46.04
18784;BME280;9520;50.954;6.968;2023-01-04T01:39:53;101604.88;;;16.36;45.76
18784;BME280;9520;50.954;6.968;2023-01-04T01:40:16;101604.78;;;16.39;45.81
18784;BME280;9520;50.954;6.968;2023-01-04T01:40:40;101592.53;;;16.32;46.05
18784;BME280;9520;50.954;6.968;2023-01-04T01:41:01;101589.88;;;16.32;46.64
18784;BME280;9520;50.954;6.968;2023-01-04T01:41:24;101605.91;;;16.29;46.30
18784;BME280;9520;50.954;6.968;2023-01-04T01:41:48;101607.19;;;16.13;46.52
18784;BME280;9520;50.954;6.968;2023-01-04T01:42:48;101607.03;;;16.19;46.52
18784;BME280;9520;50.954;6.968;2023-01-04T01:43:16;101594.56;;;16.21;46.42
18784;BME280;9520;50.954;6.968;2023-01-04T01:43:50;101603.25;;;16.29;46.36
18784;BME280;9520;50.954;6.968;2023-01-04T01:45:25;101589.31;;;16.18;46.22
18784;BME280;9520;50.954;6.968;2023-01-04T01:45:51;101598.94;;;16.24;46.56
18784;BME280;9520;50.954;6.968;2023-01-04T01:46:15;101594.56;;;16.21;46.60
18784;BME280;9520;50.954;6.968;2023-01-04T01:46:40;101599.78;;;16.26;46.48
18784;BME280;9520;50.954;6.968;2023-01-04T01:47:04;101583.94;;;16.21;46.58
18784;BME280;9520;50.954;6.968;2023-01-04T01:47:37;101604.31;;;16.22;46.73
18784;BME280;9520;50.954;6.968;2023-01-04T01:48:04;101593.72;;;16.19;46.85
18784;BME280;9520;50.954;6.968;2023-01-04T01:48:28;101593.66;;;16.22;47.14
18784;BME280;9520;50.954;6.968;2023-01-04T01:48:51;101593.69;;;16.21;46.94
18784;BME280;9520;50.954;6.968;2023-01-04T01:49:25;101591.25;;;16.12;47.13
18784;BME280;9520;50.954;6.968;2023-01-04T01:49:52;101592.06;;;16.15;46.93
18784;BME280;9520;50.954;6.968;2023-01-04T01:50:21;101585.81;;;16.16;46.86
18784;BME280;9520;50.954;6.968;2023-01-04T01:50:48;101599.81;;;16.24;46.76
18784;BME280;9520;50.954;6.968;2023-01-04T01:51:13;101593.59;;;16.25;46.99
18784;BME280;9520;50.954;6.968;2023-01-04T01:51:37;101601.63;;;15.84;47.46
18784;BME280;9520;50.954;6.968;2023-01-04T01:52:03;101592.03;;;15.78;47.95
18784;BME280;9520;50.954;6.968;2023-01-04T01:52:29;101601.59;;;15.87;47.94
18784;BME280;9520;50.954;6.968;2023-01-04T01:52:53;101583.06;;;15.82;47.64
18784;BME280;9520;50.954;6.968;2023-01-04T01:53:17;101590.94;;;15.87;47.97
18784;BME280;9520;50.954;6.968;2023-01-04T01:53:44;101590.81;;;15.93;48.05
18784;BME280;9520;50.954;6.968;2023-01-04T01:54:10;101597.03;;;15.92;48.10
18784;BME280;9520;50.954;6.968;2023-01-04T01:54:39;101581.38;;;15.78;48.05
18784;BME280;9520;50.954;6.968;2023-01-04T01:55:04;101587.28;;;15.91;48.08
18784;BME280;9520;50.954;6.968;2023-01-04T01:55:30;101581.09;;;15.90;48.25
18784;BME280;9520;50.954;6.968;2023-01-04T01:55:53;101588.16;;;15.91;48.13
18784;BME280;9520;50.954;6.968;2023-01-04T01:56:17;101580.09;;;15.94;48.25
18784;BME280;9520;50.954;6.968;2023-01-04T01:56:42;101595.50;;;15.80;48.45
18784;BME280;9520;50.954;6.968;2023-01-04T01:57:06;101585.56;;;15.47;48.76
18784;BME280;9520;50.954;6.968;2023-01-04T01:57:32;101592.19;;;15.26;49.63
18784;BME280;9520;50.954;6.968;2023-01-04T01:57:55;101593.97;;;15.26;49.79
18784;BME280;9520;50.954;6.968;2023-01-04T01:58:23;101586.66;;;15.37;49.78
18784;BME280;9520;50.954;6.968;2023-01-04T01:58:51;101593.88;;;15.30;49.47
18784;BME280;9520;50.954;6.968;2023-01-04T01:59:14;101595.50;;;15.37;49.71
18784;BME280;9520;50.954;6.968;2023-01-04T01:59:38;101534.81;;;15.14;49.62
18784;BME280;9520;50.954;6.968;2023-01-04T02:00:05;101587.16;;;15.57;49.39
18784;BME280;9520;50.954;6.968;2023-01-04T02:00:33;101593.06;;;15.70;49.47
18784;BME280;9520;50.954;6.968;2023-01-04T02:00:56;101575.28;;;15.73;49.35
18784;BME280;9520;50.954;6.968;2023-01-04T02:01:19;101584.97;;;15.76;49.25
18784;BME280;9520;50.954;6.968;2023-01-04T02:01:41;101585.94;;;15.73;49.49
18784;BME280;9520;50.954;6.968;2023-01-04T02:02:03;101584.88;;;15.79;49.03
18784;BME280;9520;50.954;6.968;2023-01-04T02:02:25;101585.78;;;15.79;49.08
18784;BME280;9520;50.954;6.968;2023-01-04T02:02:56;101565.31;;;15.83;48.95
18784;BME280;9520;50.954;6.968;2023-01-04T02:03:23;101574.97;;;15.87;49.22
18784;BME280;9520;50.954;6.968;2023-01-04T02:03:48;101582.06;;;15.88;49.00
18784;BME280;9520;50.954;6.968;2023-01-04T02:04:10;101581.31;;;15.80;49.19
18784;BME280;9520;50.954;6.968;2023-01-04T02:04:35;101579.00;;;15.65;49.22
18784;BME280;9520;50.954;6.968;2023-01-04T02:05:00;101582.25;;;15.36;49.81